Terminal Aerodrome Forecast
Issued by NWS

Home | Current Version | Previous Version | Text Only | Print | Product List | Glossary On
Versions: 1 2 3 4 5 6 7 8 9 10 11 12 13 14 15 16 17
000
FTUS43 KFGF 292320
TAFDVL
TAF
KDVL 292320Z 3000/3024 28012KT P6SM SCT090
     FM300100 25004KT P6SM FEW090
     FM301800 18010KT P6SM SCT070
     FM302200 12008KT P6SM VCSH OVC060=

USA.gov is the U.S. government's official web portal to all federal, state and local government web resources and services.